createdAt,value
2018-02-17T00:01:35.149Z,5.50
2018-02-17T00:04:02.619Z,5.50
2018-02-17T00:06:30.046Z,5.50
2018-02-17T00:08:57.519Z,5.50
2018-02-17T00:11:24.952Z,5.60
2018-02-17T00:13:52.405Z,5.60
2018-02-17T00:16:19.846Z,5.50
2018-02-17T00:18:47.333Z,5.60
2018-02-17T00:21:14.761Z,5.70
2018-02-17T00:23:42.207Z,5.70
2018-02-17T00:26:09.644Z,5.80
2018-02-17T00:28:37.107Z,5.80
2018-02-17T00:31:04.576Z,5.80
2018-02-17T00:33:32.020Z,5.90
2018-02-17T00:35:59.475Z,5.90
2018-02-17T00:38:26.931Z,5.80
2018-02-17T00:40:54.484Z,5.80
2018-02-17T00:43:21.954Z,5.80
2018-02-17T00:45:49.392Z,5.80
2018-02-17T00:48:16.846Z,5.70
2018-02-17T00:50:44.280Z,5.60
2018-02-17T00:53:11.740Z,5.50
2018-02-17T00:55:39.172Z,5.30
2018-02-17T00:58:06.649Z,5.30
2018-02-17T01:00:34.114Z,5.00
2018-02-17T01:03:01.576Z,4.90
2018-02-17T01:05:29.025Z,4.70
2018-02-17T01:07:56.484Z,4.90
2018-02-17T01:10:23.929Z,5.10
2018-02-17T01:12:51.398Z,5.00
2018-02-17T01:15:19.637Z,5.20
2018-02-17T01:17:47.105Z,5.20
2018-02-17T01:20:14.556Z,5.30
2018-02-17T01:22:42.020Z,5.40
2018-02-17T01:25:09.635Z,5.50
2018-02-17T01:27:37.099Z,5.50
2018-02-17T01:30:04.569Z,5.40
2018-02-17T01:32:32.041Z,5.40
2018-02-17T01:34:59.509Z,5.40
2018-02-17T01:37:26.955Z,5.40
2018-02-17T01:39:54.406Z,5.40
2018-02-17T01:42:21.865Z,5.30
2018-02-17T01:44:49.362Z,5.40
2018-02-17T01:47:16.800Z,5.30
2018-02-17T01:49:44.248Z,5.30
2018-02-17T01:52:11.724Z,5.40
2018-02-17T01:54:40.193Z,5.30
2018-02-17T01:57:07.647Z,5.30
2018-02-17T01:59:35.097Z,5.30
2018-02-17T02:02:02.626Z,5.40
2018-02-17T02:04:30.843Z,5.40
2018-02-17T02:06:58.290Z,5.40
2018-02-17T02:09:27.054Z,5.40
2018-02-17T02:11:54.509Z,5.40
2018-02-17T02:14:21.976Z,5.40
2018-02-17T02:16:49.423Z,5.30
2018-02-17T02:19:16.888Z,5.40
2018-02-17T02:21:44.360Z,5.30
2018-02-17T02:24:11.801Z,5.30
2018-02-17T02:26:39.291Z,5.30
2018-02-17T02:29:06.734Z,5.20
2018-02-17T02:31:34.208Z,5.20
2018-02-17T02:34:01.664Z,5.30
2018-02-17T02:36:29.142Z,5.30
2018-02-17T02:38:56.586Z,5.40
2018-02-17T02:41:24.076Z,5.30
2018-02-17T02:43:51.525Z,5.10
2018-02-17T02:46:18.982Z,5.30
2018-02-17T02:48:46.426Z,5.30
2018-02-17T02:51:13.898Z,5.30
2018-02-17T02:53:42.065Z,5.30
2018-02-17T02:56:09.523Z,5.30
2018-02-17T02:58:36.964Z,5.30
2018-02-17T03:01:04.410Z,5.40
2018-02-17T03:03:32.169Z,5.40
2018-02-17T03:05:59.640Z,5.50
2018-02-17T03:08:27.082Z,5.00
2018-02-17T03:10:54.544Z,5.20
2018-02-17T03:13:21.996Z,5.20
2018-02-17T03:15:49.543Z,5.00
2018-02-17T03:18:17.041Z,4.90
2018-02-17T03:20:44.466Z,4.90
2018-02-17T03:23:11.927Z,4.90
2018-02-17T03:25:39.387Z,5.00
2018-02-17T03:28:06.837Z,5.00
2018-02-17T03:30:34.300Z,5.00
2018-02-17T03:33:01.765Z,4.90
2018-02-17T03:35:29.216Z,4.90
2018-02-17T03:37:57.568Z,4.80
2018-02-17T03:40:25.072Z,4.80
2018-02-17T03:42:52.529Z,4.70
2018-02-17T03:45:19.974Z,4.80
2018-02-17T03:47:47.430Z,4.70
2018-02-17T03:50:14.908Z,4.80
2018-02-17T03:52:42.356Z,4.70
2018-02-17T03:55:09.812Z,4.80
2018-02-17T03:57:37.259Z,4.80
2018-02-17T04:00:04.726Z,4.90
2018-02-17T04:02:32.179Z,5.00
2018-02-17T04:04:59.635Z,5.00
2018-02-17T04:07:28.124Z,4.90
2018-02-17T04:09:55.586Z,4.90
2018-02-17T04:12:23.043Z,5.00
2018-02-17T04:14:50.509Z,5.00
2018-02-17T04:17:17.966Z,5.00
2018-02-17T04:19:45.430Z,4.80
2018-02-17T04:22:13.046Z,4.80
2018-02-17T04:24:40.491Z,4.70
2018-02-17T04:27:07.949Z,4.80
2018-02-17T04:29:35.416Z,4.80
2018-02-17T04:32:02.884Z,4.80
2018-02-17T04:34:30.356Z,4.90
2018-02-17T04:36:57.813Z,4.90
2018-02-17T04:39:25.277Z,5.00
2018-02-17T04:42:06.539Z,5.00
2018-02-17T04:44:37.473Z,5.00
2018-02-17T04:47:14.337Z,5.00
2018-02-17T04:49:42.264Z,4.90
2018-02-17T04:52:16.039Z,4.90
2018-02-17T04:54:49.181Z,4.80
2018-02-17T04:57:16.616Z,4.80
2018-02-17T04:59:50.401Z,4.80
2018-02-17T05:02:32.721Z,4.80
2018-02-17T05:05:06.707Z,4.70
2018-02-17T05:07:49.059Z,4.70
2018-02-17T05:10:16.543Z,4.80
2018-02-17T05:12:43.987Z,4.70
2018-02-17T05:15:24.172Z,4.70
2018-02-17T05:17:51.628Z,4.60
2018-02-17T05:20:19.096Z,4.50
2018-02-17T05:22:49.101Z,4.40
2018-02-17T05:25:33.229Z,4.40
2018-02-17T05:28:00.694Z,4.40
2018-02-17T05:30:28.146Z,4.30
2018-02-17T05:33:00.026Z,4.40
2018-02-17T05:35:37.464Z,4.50
2018-02-17T05:38:04.900Z,4.50
2018-02-17T05:40:33.161Z,4.50
2018-02-17T05:43:01.307Z,4.50
2018-02-17T05:45:29.598Z,4.40
2018-02-17T05:48:09.885Z,4.40
2018-02-17T05:50:37.829Z,4.40
2018-02-17T05:53:05.280Z,4.40
2018-02-17T05:55:32.740Z,4.50
2018-02-17T05:58:00.235Z,4.60
2018-02-17T06:00:28.468Z,4.60
2018-02-17T06:02:56.187Z,4.60
2018-02-17T06:05:23.592Z,4.60
2018-02-17T06:07:52.038Z,4.60
2018-02-17T06:10:19.509Z,4.70
2018-02-17T06:12:46.969Z,4.70
2018-02-17T06:15:14.441Z,4.70
2018-02-17T06:17:41.884Z,4.70
2018-02-17T06:20:09.372Z,4.60
2018-02-17T06:22:36.823Z,4.60
2018-02-17T06:25:04.289Z,4.60
2018-02-17T06:27:31.731Z,4.70
2018-02-17T06:29:59.192Z,4.70
2018-02-17T06:32:26.656Z,4.70
2018-02-17T06:34:54.095Z,4.70
2018-02-17T06:37:22.272Z,4.60
2018-02-17T06:39:49.726Z,4.60
2018-02-17T06:42:17.237Z,4.60
2018-02-17T06:44:44.675Z,4.50
2018-02-17T06:47:12.144Z,4.50
2018-02-17T06:49:39.616Z,4.40
2018-02-17T06:52:07.082Z,4.50
2018-02-17T06:54:34.553Z,4.60
2018-02-17T06:57:01.998Z,4.60
2018-02-17T06:59:29.465Z,4.60
2018-02-17T07:01:56.910Z,4.50
2018-02-17T07:04:24.376Z,4.50
2018-02-17T07:06:51.820Z,4.50
2018-02-17T07:09:19.468Z,4.30
2018-02-17T07:11:47.248Z,4.30
2018-02-17T07:14:14.715Z,4.30
2018-02-17T07:16:42.188Z,4.40
2018-02-17T07:19:09.703Z,4.30
2018-02-17T07:21:37.177Z,4.20
2018-02-17T07:24:04.621Z,4.10
2018-02-17T07:26:32.093Z,4.20
2018-02-17T07:28:59.551Z,4.30
2018-02-17T07:31:27.192Z,4.30
2018-02-17T07:33:55.412Z,4.40
2018-02-17T07:36:22.872Z,4.30
2018-02-17T07:38:50.325Z,4.40
2018-02-17T07:41:17.785Z,4.40
2018-02-17T07:43:45.230Z,4.40
2018-02-17T07:46:12.688Z,4.50
2018-02-17T07:48:40.172Z,4.50
2018-02-17T07:51:07.614Z,4.50
2018-02-17T07:53:35.236Z,4.50
2018-02-17T07:56:02.720Z,4.50
2018-02-17T07:58:30.178Z,4.50
2018-02-17T08:00:57.636Z,4.40
2018-02-17T08:03:25.088Z,4.40
2018-02-17T08:05:52.551Z,4.30
2018-02-17T08:08:19.999Z,4.30
2018-02-17T08:10:47.453Z,4.30
2018-02-17T08:13:14.908Z,4.30
2018-02-17T08:15:42.355Z,4.30
2018-02-17T08:18:09.818Z,4.30
2018-02-17T08:20:37.293Z,4.40
2018-02-17T08:23:04.749Z,4.40
2018-02-17T08:25:32.192Z,4.40
2018-02-17T08:27:59.693Z,4.30
2018-02-17T08:30:27.154Z,4.30
2018-02-17T08:32:54.629Z,4.30
2018-02-17T08:35:22.100Z,4.10
2018-02-17T08:37:49.565Z,4.10
2018-02-17T08:40:17.029Z,4.10
2018-02-17T08:42:44.512Z,4.00
2018-02-17T08:45:11.985Z,3.80
2018-02-17T08:47:39.456Z,3.80
2018-02-17T08:50:06.932Z,4.00
2018-02-17T08:52:35.168Z,4.10
2018-02-17T08:55:02.667Z,4.10
2018-02-17T08:57:30.124Z,4.20
2018-02-17T08:59:57.592Z,4.20
2018-02-17T09:02:25.036Z,4.20
2018-02-17T09:04:52.553Z,4.30
2018-02-17T09:07:20.517Z,4.50
2018-02-17T09:09:47.977Z,4.50
2018-02-17T09:12:15.454Z,4.60
2018-02-17T09:14:42.908Z,4.80
2018-02-17T09:17:10.366Z,5.00
2018-02-17T09:19:37.859Z,5.10
2018-02-17T09:22:05.324Z,4.90
2018-02-17T09:24:33.601Z,4.50
2018-02-17T09:27:01.060Z,4.40
2018-02-17T09:29:28.558Z,4.60
2018-02-17T09:31:55.993Z,4.50
2018-02-17T09:34:23.459Z,4.50
2018-02-17T09:36:50.936Z,4.40
2018-02-17T09:39:18.435Z,4.40
2018-02-17T09:41:45.902Z,4.40
2018-02-17T09:44:13.889Z,4.50
2018-02-17T09:46:41.378Z,4.50
2018-02-17T09:49:08.813Z,4.60
2018-02-17T09:51:36.262Z,4.50
2018-02-17T09:54:03.743Z,4.50
2018-02-17T09:56:31.193Z,4.50
2018-02-17T09:58:58.701Z,4.50
2018-02-17T10:01:26.166Z,4.60
2018-02-17T10:03:53.673Z,4.60
2018-02-17T10:06:21.130Z,4.70
2018-02-17T10:08:48.594Z,4.80
2018-02-17T10:11:16.122Z,4.80
2018-02-17T10:13:43.598Z,4.90
2018-02-17T10:16:11.041Z,5.00
2018-02-17T10:18:38.552Z,5.00
2018-02-17T10:21:06.019Z,5.00
2018-02-17T10:23:33.507Z,4.90
2018-02-17T10:26:00.982Z,4.90
2018-02-17T10:28:28.473Z,4.80
2018-02-17T10:30:55.949Z,4.80
2018-02-17T10:33:23.416Z,4.80
2018-02-17T10:35:50.889Z,4.90
2018-02-17T10:38:18.357Z,4.90
2018-02-17T10:40:45.833Z,4.90
2018-02-17T10:43:13.269Z,4.90
2018-02-17T10:45:40.741Z,5.00
2018-02-17T10:48:08.216Z,5.00
2018-02-17T10:50:35.914Z,5.10
2018-02-17T10:53:03.369Z,5.20
2018-02-17T10:55:36.573Z,5.20
2018-02-17T10:58:04.030Z,5.20
2018-02-17T11:00:31.472Z,5.20
2018-02-17T11:02:58.936Z,5.00
2018-02-17T11:05:26.418Z,5.10
2018-02-17T11:07:53.879Z,5.10
2018-02-17T11:10:21.328Z,5.10
2018-02-17T11:12:48.790Z,5.20
2018-02-17T11:15:16.240Z,5.20
2018-02-17T11:17:43.706Z,5.30
2018-02-17T11:20:11.152Z,5.30
2018-02-17T11:22:38.608Z,5.40
2018-02-17T11:25:06.815Z,5.50
2018-02-17T11:27:34.332Z,5.50
2018-02-17T11:30:01.788Z,5.50
2018-02-17T11:32:29.256Z,5.40
2018-02-17T11:34:57.511Z,5.40
2018-02-17T11:37:24.966Z,5.30
2018-02-17T11:39:52.437Z,5.40
2018-02-17T11:42:19.896Z,5.30
2018-02-17T11:44:47.386Z,5.10
2018-02-17T11:47:15.111Z,5.10
2018-02-17T11:49:42.557Z,5.10
2018-02-17T11:52:10.021Z,5.20
2018-02-17T11:54:37.474Z,4.90
2018-02-17T11:57:04.980Z,4.80
2018-02-17T11:59:32.527Z,4.80
2018-02-17T12:02:00.087Z,4.80
2018-02-17T12:04:27.548Z,4.70
2018-02-17T12:06:55.782Z,4.20
2018-02-17T12:09:23.244Z,4.10
2018-02-17T12:11:50.701Z,4.10
2018-02-17T12:14:18.273Z,4.20
2018-02-17T12:16:45.761Z,4.20
2018-02-17T12:19:13.215Z,4.00
2018-02-17T12:21:40.679Z,4.10
2018-02-17T12:24:08.140Z,3.80
2018-02-17T12:26:35.585Z,4.00
2018-02-17T12:29:03.048Z,4.20
2018-02-17T12:31:30.529Z,4.20
2018-02-17T12:33:58.018Z,4.20
2018-02-17T12:36:25.477Z,4.30
2018-02-17T12:38:53.384Z,4.30
2018-02-17T12:41:20.965Z,4.30
2018-02-17T12:43:48.412Z,4.20
2018-02-17T12:46:16.638Z,4.40
2018-02-17T12:48:44.109Z,4.60
2018-02-17T12:51:11.571Z,4.80
2018-02-17T12:53:39.815Z,4.90
2018-02-17T12:56:08.057Z,4.90
2018-02-17T12:58:35.513Z,4.90
2018-02-17T13:01:02.985Z,4.90
2018-02-17T13:03:30.530Z,5.00
2018-02-17T13:05:57.987Z,5.00
2018-02-17T13:08:25.476Z,5.00
2018-02-17T13:10:52.952Z,5.00
2018-02-17T13:13:20.428Z,5.00
2018-02-17T13:15:47.909Z,5.00
2018-02-17T13:18:16.212Z,5.00
2018-02-17T13:20:43.669Z,4.90
2018-02-17T13:23:11.151Z,4.90
2018-02-17T13:25:38.602Z,5.00
2018-02-17T13:28:06.064Z,4.90
2018-02-17T13:30:33.544Z,4.90
2018-02-17T13:33:01.014Z,4.90
2018-02-17T13:35:29.264Z,5.30
2018-02-17T13:37:56.733Z,4.90
2018-02-17T13:40:24.197Z,5.00
2018-02-17T13:42:51.653Z,5.00
2018-02-17T13:45:19.111Z,5.00
2018-02-17T13:47:46.596Z,5.00
2018-02-17T13:50:14.146Z,5.00
2018-02-17T13:52:41.652Z,5.10
2018-02-17T13:55:09.136Z,5.10
2018-02-17T13:57:36.583Z,5.10
2018-02-17T14:00:04.057Z,5.10
2018-02-17T14:02:33.222Z,5.00
2018-02-17T14:05:00.685Z,5.00
2018-02-17T14:07:28.183Z,5.00
2018-02-17T14:09:55.869Z,5.00
2018-02-17T14:12:23.335Z,5.00
2018-02-17T14:14:50.797Z,4.90
2018-02-17T14:17:18.276Z,4.90
2018-02-17T14:19:45.748Z,4.90
2018-02-17T14:22:14.222Z,4.80
2018-02-17T14:24:41.700Z,4.70
2018-02-17T14:27:09.944Z,4.60
2018-02-17T14:29:37.912Z,4.60
2018-02-17T14:32:05.376Z,4.50
2018-02-17T14:34:32.831Z,4.50
2018-02-17T14:37:00.298Z,4.60
2018-02-17T14:39:27.774Z,4.60
2018-02-17T14:41:55.215Z,4.60
2018-02-17T14:44:23.709Z,4.60
2018-02-17T14:46:51.166Z,4.50
2018-02-17T14:49:18.641Z,4.50
2018-02-17T14:51:46.342Z,4.50
2018-02-17T14:54:13.835Z,4.50
2018-02-17T14:56:41.303Z,4.40
2018-02-17T14:59:08.763Z,4.40
2018-02-17T15:01:36.229Z,4.40
2018-02-17T15:04:03.694Z,4.40
2018-02-17T15:06:31.927Z,4.40
2018-02-17T15:08:59.407Z,4.30
2018-02-17T15:11:26.933Z,4.30
2018-02-17T15:13:55.161Z,4.20
2018-02-17T15:16:23.420Z,4.20
2018-02-17T15:18:50.906Z,4.10
2018-02-17T15:21:18.364Z,4.20
2018-02-17T15:23:45.957Z,4.10
2018-02-17T15:26:13.425Z,4.10
2018-02-17T15:28:40.890Z,4.10
2018-02-17T15:31:08.365Z,4.00
2018-02-17T15:33:35.853Z,4.00
2018-02-17T15:36:03.306Z,4.00
2018-02-17T15:38:30.795Z,4.00
2018-02-17T15:40:58.317Z,3.90
2018-02-17T15:43:25.782Z,3.90
2018-02-17T15:45:53.273Z,3.80
2018-02-17T15:48:20.745Z,3.80
2018-02-17T15:50:48.204Z,3.70
2018-02-17T15:53:15.666Z,3.60
2018-02-17T15:55:43.132Z,3.60
2018-02-17T15:58:10.755Z,3.70
2018-02-17T16:00:38.221Z,3.60
2018-02-17T16:03:05.677Z,3.60
2018-02-17T16:05:33.193Z,3.50
2018-02-17T16:08:00.622Z,3.50
2018-02-17T16:10:28.074Z,3.40
2018-02-17T16:12:55.560Z,3.30
2018-02-17T16:15:24.630Z,3.30
2018-02-17T16:17:52.103Z,3.30
2018-02-17T16:20:19.671Z,3.20
2018-02-17T16:22:47.153Z,3.20
2018-02-17T16:25:14.593Z,3.20
2018-02-17T16:27:42.110Z,3.20
2018-02-17T16:30:10.408Z,3.20
2018-02-17T16:32:37.890Z,3.10
2018-02-17T16:35:06.117Z,3.20
2018-02-17T16:37:33.565Z,3.10
2018-02-17T16:40:01.029Z,3.10
2018-02-17T16:42:28.653Z,3.20
2018-02-17T16:44:56.131Z,3.20
2018-02-17T16:47:23.587Z,3.20
2018-02-17T16:49:51.045Z,3.20
2018-02-17T16:52:18.517Z,3.20
2018-02-17T16:54:45.962Z,3.20
2018-02-17T16:57:13.461Z,3.20
2018-02-17T16:59:40.900Z,3.30
2018-02-17T17:02:08.406Z,3.20
2018-02-17T17:04:35.856Z,3.30
2018-02-17T17:07:03.299Z,3.40
2018-02-17T17:09:30.752Z,3.40
2018-02-17T17:11:58.189Z,3.40
2018-02-17T17:14:25.624Z,3.40
2018-02-17T17:16:53.068Z,3.40
2018-02-17T17:19:20.522Z,3.30
2018-02-17T17:21:47.983Z,3.30
2018-02-17T17:24:15.432Z,3.30
2018-02-17T17:26:42.863Z,3.30
2018-02-17T17:29:10.335Z,3.30
2018-02-17T17:31:37.767Z,3.60
2018-02-17T17:34:05.240Z,4.50
2018-02-17T17:36:32.670Z,4.50
2018-02-17T17:39:00.104Z,4.10
2018-02-17T17:41:27.561Z,3.80
2018-02-17T17:43:55.037Z,3.60
2018-02-17T17:46:23.198Z,3.40
2018-02-17T17:48:50.658Z,3.40
2018-02-17T17:51:18.112Z,3.40
2018-02-17T17:53:45.547Z,3.30
2018-02-17T17:56:13.768Z,3.30
2018-02-17T17:58:41.966Z,3.30
2018-02-17T18:01:09.419Z,3.20
2018-02-17T18:03:36.843Z,3.30
2018-02-17T18:06:04.297Z,3.30
2018-02-17T18:08:31.729Z,3.40
2018-02-17T18:10:59.269Z,3.40
2018-02-17T18:13:26.726Z,3.50
2018-02-17T18:15:54.180Z,3.50
2018-02-17T18:18:21.623Z,3.60
2018-02-17T18:20:49.047Z,3.60
2018-02-17T18:23:16.495Z,3.60
2018-02-17T18:25:43.948Z,3.60
2018-02-17T18:28:11.403Z,3.60
2018-02-17T18:30:38.873Z,3.60
2018-02-17T18:33:06.328Z,3.60
2018-02-17T18:35:33.768Z,3.60
2018-02-17T18:38:01.234Z,3.60
2018-02-17T18:40:28.689Z,3.60
2018-02-17T18:42:56.191Z,3.60
2018-02-17T18:45:23.628Z,3.50
2018-02-17T18:47:51.102Z,3.50
2018-02-17T18:50:18.552Z,3.60
2018-02-17T18:52:46.955Z,3.60
2018-02-17T18:55:14.455Z,3.50
2018-02-17T18:57:41.924Z,3.60
2018-02-17T19:00:09.411Z,3.60
2018-02-17T19:02:37.609Z,3.70
2018-02-17T19:05:05.092Z,3.60
2018-02-17T19:07:32.544Z,3.70
2018-02-17T19:10:00.104Z,3.70
2018-02-17T19:12:27.537Z,3.70
2018-02-17T19:14:55.032Z,3.70
2018-02-17T19:17:22.452Z,3.80
2018-02-17T19:19:49.942Z,3.80
2018-02-17T19:22:17.424Z,3.70
2018-02-17T19:24:44.904Z,3.80
2018-02-17T19:27:12.329Z,3.90
2018-02-17T19:29:39.799Z,3.90
2018-02-17T19:32:07.235Z,3.90
2018-02-17T19:34:34.709Z,3.90
2018-02-17T19:37:02.144Z,3.80
2018-02-17T19:39:29.612Z,3.80
2018-02-17T19:41:57.092Z,3.90
2018-02-17T19:44:24.548Z,3.80
2018-02-17T19:46:51.980Z,3.80
2018-02-17T19:49:19.428Z,3.80
2018-02-17T19:51:46.897Z,3.90
2018-02-17T19:54:14.328Z,3.90
2018-02-17T19:56:41.765Z,3.90
2018-02-17T19:59:09.239Z,4.00
2018-02-17T20:01:36.665Z,3.90
2018-02-17T20:04:04.146Z,3.90
2018-02-17T20:06:31.602Z,3.90
2018-02-17T20:08:59.047Z,3.90
2018-02-17T20:11:26.472Z,3.80
2018-02-17T20:13:53.961Z,3.80
2018-02-17T20:16:21.373Z,3.80
2018-02-17T20:18:48.802Z,3.70
2018-02-17T20:21:16.328Z,3.70
2018-02-17T20:23:43.816Z,3.70
2018-02-17T20:26:11.237Z,3.70
2018-02-17T20:28:38.673Z,3.70
2018-02-17T20:31:06.121Z,3.70
2018-02-17T20:33:33.580Z,3.70
2018-02-17T20:36:01.038Z,3.70
2018-02-17T20:38:29.260Z,3.70
2018-02-17T20:40:56.735Z,3.70
2018-02-17T20:43:24.379Z,3.70
2018-02-17T20:45:51.812Z,3.60
2018-02-17T20:48:19.285Z,3.60
2018-02-17T20:50:46.703Z,3.70
2018-02-17T20:53:14.150Z,3.70
2018-02-17T20:55:41.581Z,3.70
2018-02-17T20:58:09.019Z,3.70
2018-02-17T21:00:36.465Z,3.70
2018-02-17T21:03:03.932Z,3.70
2018-02-17T21:05:32.628Z,3.70
2018-02-17T21:08:00.076Z,3.70
2018-02-17T21:10:27.523Z,3.70
2018-02-17T21:12:54.987Z,3.80
2018-02-17T21:15:23.208Z,3.80
2018-02-17T21:17:50.643Z,3.80
2018-02-17T21:20:18.099Z,3.90
2018-02-17T21:22:45.560Z,3.90
2018-02-17T21:25:12.992Z,3.80
2018-02-17T21:27:40.444Z,3.90
2018-02-17T21:30:07.939Z,3.90
2018-02-17T21:32:35.388Z,3.90
2018-02-17T21:35:02.848Z,3.90
2018-02-17T21:37:30.889Z,4.00
2018-02-17T21:39:58.344Z,3.90
2018-02-17T21:42:26.031Z,3.90
2018-02-17T21:44:53.493Z,4.00
2018-02-17T21:47:20.990Z,4.00
2018-02-17T21:49:48.478Z,4.00
2018-02-17T21:52:15.943Z,4.00
2018-02-17T21:54:43.396Z,4.00
2018-02-17T21:57:10.823Z,4.00
2018-02-17T21:59:39.068Z,4.00
2018-02-17T22:02:06.491Z,3.90
2018-02-17T22:04:33.933Z,4.00
2018-02-17T22:07:01.393Z,4.00
2018-02-17T22:09:28.843Z,4.00
2018-02-17T22:11:56.285Z,4.00
2018-02-17T22:14:23.703Z,4.00
2018-02-17T22:16:51.153Z,4.00
2018-02-17T22:19:18.608Z,4.10
2018-02-17T22:21:46.824Z,4.10
2018-02-17T22:24:14.267Z,4.00
2018-02-17T22:26:42.506Z,4.10
2018-02-17T22:29:09.967Z,4.00
2018-02-17T22:31:37.394Z,4.00
2018-02-17T22:34:04.852Z,4.00
2018-02-17T22:36:32.303Z,4.00
2018-02-17T22:38:59.732Z,3.90
2018-02-17T22:41:27.168Z,3.90
2018-02-17T22:43:54.627Z,3.90
2018-02-17T22:46:22.081Z,3.80
2018-02-17T22:48:49.508Z,3.80
2018-02-17T22:51:16.993Z,3.80
2018-02-17T22:53:45.064Z,3.80
2018-02-17T22:56:12.591Z,3.80
2018-02-17T22:58:40.038Z,3.70
2018-02-17T23:01:07.509Z,3.80
2018-02-17T23:03:34.948Z,3.80
2018-02-17T23:06:02.420Z,3.80
2018-02-17T23:08:29.878Z,3.80
2018-02-17T23:10:57.300Z,3.70
2018-02-17T23:13:24.732Z,3.80
2018-02-17T23:15:52.191Z,3.80
2018-02-17T23:18:19.740Z,3.70
2018-02-17T23:20:47.202Z,3.70
2018-02-17T23:23:14.932Z,3.70
2018-02-17T23:25:42.380Z,3.70
2018-02-17T23:28:09.824Z,3.70
2018-02-17T23:30:38.041Z,3.70
2018-02-17T23:33:05.476Z,3.70
2018-02-17T23:35:32.968Z,3.70
2018-02-17T23:38:00.396Z,3.70
2018-02-17T23:40:28.029Z,3.70
2018-02-17T23:42:55.488Z,3.70
2018-02-17T23:45:23.743Z,3.70
2018-02-17T23:47:51.127Z,3.70
2018-02-17T23:50:18.618Z,3.70
2018-02-17T23:52:46.105Z,3.70
2018-02-17T23:55:13.557Z,3.70
2018-02-17T23:57:40.989Z,3.70
